Time;durP1;ratioP1;P1;durP2;ratioP2;P2;SDS_P1;SDS_P2;PMS_P1;PMS_P2;Temp;Humidity;BMP_temperature;BMP_pressure;BME280_temperature;BME280_humidity;BME280_pressure;Samples;Min_cycle;Max_cycle;Signal;HPM_P1;HPM_P2
2021/01/30 00:02:04;;;;;;;16.33;11.57;;;;;;;;;;5036255;28;20239;-70
2021/01/30 00:04:30;;;;;;;21.27;14.27;;;;;;;;;;5043999;28;20185;-69
2021/01/30 00:06:56;;;;;;;20.77;14.53;;;;;;;;;;5042519;28;20189;-69
2021/01/30 00:09:24;;;;;;;19.13;13.40;;;;;;;;;;5044831;28;20709;-69
2021/01/30 00:11:51;;;;;;;15.50;11.97;;;;;;;;;;5040887;28;20185;-69
2021/01/30 00:14:22;;;;;;;18.97;13.33;;;;;;;;;;5048324;28;20192;-69
2021/01/30 00:16:48;;;;;;;17.63;13.30;;;;;;;;;;5040895;28;20681;-69
2021/01/30 00:19:13;;;;;;;18.10;13.23;;;;;;;;;;5047252;28;20288;-69
2021/01/30 00:21:38;;;;;;;19.80;13.70;;;;;;;;;;5036755;28;20209;-69
2021/01/30 00:24:05;;;;;;;19.10;13.50;;;;;;;;;;5043290;28;20191;-69
2021/01/30 00:26:30;;;;;;;19.23;13.17;;;;;;;;;;5040612;28;20181;-70
2021/01/30 00:28:56;;;;;;;18.47;13.10;;;;;;;;;;5032954;28;20220;-69
2021/01/30 00:31:21;;;;;;;18.80;12.40;;;;;;;;;;5044605;28;20181;-69
2021/01/30 00:33:46;;;;;;;19.17;12.57;;;;;;;;;;5034434;28;20654;-69
2021/01/30 00:36:12;;;;;;;16.47;12.20;;;;;;;;;;5047129;28;20263;-69
2021/01/30 00:38:37;;;;;;;16.17;11.40;;;;;;;;;;5035107;28;20208;-69
2021/01/30 00:41:02;;;;;;;16.87;9.67;;;;;;;;;;5043602;28;20612;-69
2021/01/30 00:43:28;;;;;;;16.87;11.57;;;;;;;;;;5043427;28;20550;-69
2021/01/30 00:45:53;;;;;;;14.63;9.80;;;;;;;;;;5049784;28;20212;-69
2021/01/30 00:48:19;;;;;;;15.33;10.43;;;;;;;;;;5039264;28;20177;-69
2021/01/30 00:50:44;;;;;;;15.07;11.10;;;;;;;;;;5045727;28;20273;-70
2021/01/30 00:53:09;;;;;;;16.47;11.20;;;;;;;;;;5037909;28;20181;-70
2021/01/30 00:55:34;;;;;;;14.80;10.80;;;;;;;;;;5047215;28;20181;-70
2021/01/30 00:58:00;;;;;;;16.40;11.60;;;;;;;;;;5059608;28;20193;-70
2021/01/30 01:00:27;;;;;;;15.63;11.33;;;;;;;;;;5040361;28;20648;-70
2021/01/30 01:02:53;;;;;;;15.37;11.23;;;;;;;;;;5047121;28;20190;-70
2021/01/30 01:05:19;;;;;;;15.17;10.97;;;;;;;;;;5034358;28;20259;-70
2021/01/30 01:07:46;;;;;;;14.77;10.87;;;;;;;;;;5046190;28;20213;-70
2021/01/30 01:10:13;;;;;;;13.37;10.07;;;;;;;;;;5036274;28;20182;-70
2021/01/30 01:12:38;;;;;;;12.77;9.93;;;;;;;;;;5046862;28;20190;-70
2021/01/30 01:15:07;;;;;;;12.47;8.57;;;;;;;;;;5034206;28;20193;-70
2021/01/30 01:17:33;;;;;;;11.87;8.43;;;;;;;;;;5045528;28;20199;-69
2021/01/30 01:19:58;;;;;;;11.13;8.63;;;;;;;;;;5037189;28;20186;-70
2021/01/30 01:22:23;;;;;;;12.93;7.93;;;;;;;;;;5049541;28;20222;-70
2021/01/30 01:24:49;;;;;;;13.13;8.87;;;;;;;;;;5040561;28;20602;-70
2021/01/30 01:27:14;;;;;;;12.13;8.40;;;;;;;;;;5052446;28;20264;-71
2021/01/30 01:29:39;;;;;;;11.60;8.33;;;;;;;;;;5045482;28;20272;-70
2021/01/30 01:32:05;;;;;;;12.23;8.53;;;;;;;;;;5045223;28;20808;-70
2021/01/30 01:34:31;;;;;;;10.83;7.87;;;;;;;;;;5047536;28;20220;-70
2021/01/30 01:37:05;;;;;;;10.30;7.97;;;;;;;;;;5040094;28;20297;-70
2021/01/30 01:39:32;;;;;;;11.80;8.20;;;;;;;;;;5047063;28;20185;-70
2021/01/30 01:42:10;;;;;;;12.20;8.27;;;;;;;;;;5043717;28;20262;-70
2021/01/30 01:44:35;;;;;;;12.70;8.23;;;;;;;;;;5048333;28;20211;-70
2021/01/30 01:47:03;;;;;;;12.07;8.10;;;;;;;;;;5040232;28;20259;-70
2021/01/30 01:49:33;;;;;;;7.97;5.53;;;;;;;;;;5044838;28;20193;-70
2021/01/30 01:52:04;;;;;;;10.40;7.57;;;;;;;;;;5038231;28;20201;-70
2021/01/30 01:54:31;;;;;;;9.90;7.43;;;;;;;;;;5047864;28;20177;-70
2021/01/30 01:57:05;;;;;;;9.80;7.67;;;;;;;;;;5039589;28;20193;-70
2021/01/30 01:59:30;;;;;;;10.27;7.60;;;;;;;;;;5049508;28;20204;-70
2021/01/30 02:01:56;;;;;;;11.63;8.10;;;;;;;;;;5039425;28;20206;-70
2021/01/30 02:04:24;;;;;;;10.33;7.73;;;;;;;;;;5045941;28;20276;-70
2021/01/30 02:06:51;;;;;;;10.40;7.60;;;;;;;;;;5040633;28;22041;-70
2021/01/30 02:09:20;;;;;;;10.77;7.13;;;;;;;;;;5045806;28;20247;-70
2021/01/30 02:11:59;;;;;;;8.80;6.20;;;;;;;;;;5066311;28;20198;-70
2021/01/30 02:14:26;;;;;;;7.97;6.10;;;;;;;;;;5046033;28;20717;-70
2021/01/30 02:17:03;;;;;;;10.13;6.90;;;;;;;;;;5050941;28;20190;-70
2021/01/30 02:19:31;;;;;;;8.33;6.20;;;;;;;;;;5038611;28;20193;-70
2021/01/30 02:22:13;;;;;;;7.40;6.13;;;;;;;;;;5048352;28;20261;-70
2021/01/30 02:25:20;;;;;;;8.83;5.63;;;;;;;;;;5036984;28;20185;-70
2021/01/30 02:28:04;;;;;;;10.33;5.90;;;;;;;;;;5046904;28;20200;-70
2021/01/30 02:30:57;;;;;;;8.57;5.80;;;;;;;;;;5052030;28;20184;-70
2021/01/30 02:33:26;;;;;;;7.73;5.40;;;;;;;;;;5035622;28;20201;-70
2021/01/30 02:36:15;;;;;;;13.90;5.70;;;;;;;;;;5052022;28;20211;-70
2021/01/30 02:38:50;;;;;;;8.57;5.10;;;;;;;;;;5036318;28;20204;-70
2021/01/30 02:41:24;;;;;;;6.80;4.70;;;;;;;;;;5052649;28;20702;-70
2021/01/30 02:43:50;;;;;;;10.13;5.20;;;;;;;;;;5037435;28;20196;-70
2021/01/30 02:46:28;;;;;;;8.00;5.63;;;;;;;;;;5049193;28;20923;-70
2021/01/30 02:48:57;;;;;;;6.53;4.30;;;;;;;;;;5048022;28;20559;-70
2021/01/30 02:51:26;;;;;;;8.13;4.80;;;;;;;;;;5061454;28;20197;-70
2021/01/30 02:53:56;;;;;;;6.43;4.73;;;;;;;;;;5046567;28;20194;-70
2021/01/30 02:56:22;;;;;;;7.17;4.60;;;;;;;;;;5039184;28;20636;-70
2021/01/30 02:59:11;;;;;;;6.17;4.30;;;;;;;;;;5045859;28;20229;-70
2021/01/30 03:01:38;;;;;;;5.87;4.03;;;;;;;;;;5036011;28;20217;-70
2021/01/30 03:04:12;;;;;;;5.63;4.13;;;;;;;;;;5047331;28;20181;-70
2021/01/30 03:07:00;;;;;;;5.17;4.10;;;;;;;;;;5037549;28;20209;-70
2021/01/30 03:10:02;;;;;;;7.10;4.07;;;;;;;;;;5040282;28;20186;-70
2021/01/30 03:12:43;;;;;;;7.50;4.47;;;;;;;;;;5036234;28;20197;-70
2021/01/30 03:15:17;;;;;;;6.33;3.77;;;;;;;;;;5047090;28;20589;-70
2021/01/30 03:17:45;;;;;;;7.67;4.27;;;;;;;;;;5036376;28;20539;-70
2021/01/30 03:20:13;;;;;;;7.30;4.10;;;;;;;;;;5050494;28;20208;-70
2021/01/30 03:22:40;;;;;;;6.40;4.50;;;;;;;;;;5037106;28;20251;-70
2021/01/30 03:25:06;;;;;;;7.13;4.83;;;;;;;;;;5046702;28;20185;-70
2021/01/30 03:27:34;;;;;;;7.77;4.83;;;;;;;;;;5038567;28;20196;-70
2021/01/30 03:30:00;;;;;;;7.23;4.47;;;;;;;;;;5043519;28;20211;-70
2021/01/30 03:32:28;;;;;;;6.83;4.70;;;;;;;;;;5039034;28;20189;-71
2021/01/30 03:34:55;;;;;;;7.63;4.77;;;;;;;;;;5047524;28;20255;-70
2021/01/30 03:37:21;;;;;;;7.33;5.03;;;;;;;;;;5038214;28;20595;-70
2021/01/30 03:39:46;;;;;;;7.20;4.67;;;;;;;;;;5041375;28;20251;-70
2021/01/30 03:42:12;;;;;;;7.77;5.23;;;;;;;;;;5037258;28;20206;-70
2021/01/30 03:44:38;;;;;;;7.23;4.73;;;;;;;;;;5044369;28;20185;-70
2021/01/30 03:47:04;;;;;;;9.53;6.00;;;;;;;;;;5037842;28;20189;-70
2021/01/30 03:49:29;;;;;;;8.40;5.40;;;;;;;;;;5046949;28;20660;-70
2021/01/30 03:51:55;;;;;;;8.50;5.83;;;;;;;;;;5045681;28;20182;-70
2021/01/30 03:54:20;;;;;;;11.10;6.30;;;;;;;;;;5044510;28;20203;-70
2021/01/30 03:56:46;;;;;;;9.73;6.10;;;;;;;;;;5048770;28;21264;-70
2021/01/30 03:59:15;;;;;;;8.63;5.23;;;;;;;;;;5040791;28;20285;-70
2021/01/30 04:01:40;;;;;;;8.57;5.80;;;;;;;;;;5046642;28;20271;-70
2021/01/30 04:04:05;;;;;;;7.90;5.47;;;;;;;;;;5036247;28;20193;-70
2021/01/30 04:06:31;;;;;;;9.10;5.67;;;;;;;;;;5046559;28;20560;-71
2021/01/30 04:08:56;;;;;;;8.23;5.47;;;;;;;;;;5036636;28;20189;-71
2021/01/30 04:11:29;;;;;;;6.83;5.17;;;;;;;;;;5053723;28;20300;-71
2021/01/30 04:13:56;;;;;;;9.00;5.77;;;;;;;;;;5034557;28;20197;-70
2021/01/30 04:16:22;;;;;;;6.67;5.03;;;;;;;;;;5052546;28;20193;-70
2021/01/30 04:18:48;;;;;;;7.73;5.57;;;;;;;;;;5035549;28;20648;-70
2021/01/30 04:21:13;;;;;;;7.33;5.20;;;;;;;;;;5045334;28;20217;-70
2021/01/30 04:23:38;;;;;;;8.93;5.13;;;;;;;;;;5039978;28;20189;-70
2021/01/30 04:26:04;;;;;;;7.93;5.67;;;;;;;;;;5042496;28;20529;-70
2021/01/30 04:28:30;;;;;;;7.70;5.50;;;;;;;;;;5043934;28;20623;-70
2021/01/30 04:30:55;;;;;;;10.03;5.27;;;;;;;;;;5034819;28;20246;-70
2021/01/30 04:33:21;;;;;;;8.40;5.70;;;;;;;;;;5045120;28;20185;-70
2021/01/30 04:35:46;;;;;;;7.67;5.87;;;;;;;;;;5052288;28;20188;-70
2021/01/30 04:38:12;;;;;;;8.53;5.80;;;;;;;;;;5046582;28;20265;-70
2021/01/30 04:40:45;;;;;;;8.20;5.17;;;;;;;;;;5032312;28;20196;-70
2021/01/30 04:43:32;;;;;;;8.50;5.83;;;;;;;;;;5059733;28;20193;-70
2021/01/30 04:46:20;;;;;;;8.17;5.93;;;;;;;;;;5029440;28;20205;-70
2021/01/30 04:48:58;;;;;;;10.07;6.50;;;;;;;;;;5043660;28;20182;-70
2021/01/30 04:51:34;;;;;;;8.50;6.00;;;;;;;;;;5035833;28;20189;-70
2021/01/30 04:54:30;;;;;;;8.60;5.90;;;;;;;;;;5044418;28;20188;-70
2021/01/30 04:57:39;;;;;;;9.73;6.23;;;;;;;;;;5039929;28;20178;-70
2021/01/30 05:00:30;;;;;;;10.03;6.00;;;;;;;;;;5041469;28;20664;-70
2021/01/30 05:03:01;;;;;;;8.50;5.63;;;;;;;;;;5039086;28;20193;-70
2021/01/30 05:05:29;;;;;;;9.23;6.40;;;;;;;;;;5043049;28;20216;-70
2021/01/30 05:08:00;;;;;;;8.53;6.00;;;;;;;;;;5037828;28;20272;-70
2021/01/30 05:10:45;;;;;;;8.60;5.80;;;;;;;;;;5051293;28;20723;-71
2021/01/30 05:13:17;;;;;;;8.23;6.13;;;;;;;;;;5037904;28;20220;-70
2021/01/30 05:15:50;;;;;;;9.13;6.20;;;;;;;;;;5051322;28;20197;-70
2021/01/30 05:18:21;;;;;;;9.70;6.23;;;;;;;;;;5040028;28;20200;-70
2021/01/30 05:20:56;;;;;;;8.03;5.53;;;;;;;;;;5052592;28;20213;-70
2021/01/30 05:23:24;;;;;;;9.00;5.70;;;;;;;;;;5041106;28;20181;-70
2021/01/30 05:26:08;;;;;;;8.07;5.60;;;;;;;;;;5048130;28;20197;-70
2021/01/30 05:28:45;;;;;;;9.40;6.37;;;;;;;;;;5038429;28;20225;-70
2021/01/30 05:31:13;;;;;;;9.87;6.67;;;;;;;;;;5047589;28;20269;-70
2021/01/30 05:34:06;;;;;;;9.27;6.73;;;;;;;;;;5039389;28;20181;-70
2021/01/30 05:36:39;;;;;;;10.37;6.40;;;;;;;;;;5044976;28;20770;-70
2021/01/30 05:39:26;;;;;;;12.63;8.10;;;;;;;;;;5041258;28;20181;-70
2021/01/30 05:42:13;;;;;;;11.10;7.47;;;;;;;;;;5045998;28;20217;-70
2021/01/30 05:44:57;;;;;;;11.57;8.33;;;;;;;;;;5036855;28;20189;-70
2021/01/30 05:47:28;;;;;;;14.63;9.17;;;;;;;;;;5045406;28;20194;-70
2021/01/30 05:50:02;;;;;;;12.37;8.50;;;;;;;;;;5039997;28;20192;-70
2021/01/30 05:52:32;;;;;;;13.00;8.40;;;;;;;;;;5046729;28;20196;-70
2021/01/30 05:54:58;;;;;;;11.67;8.13;;;;;;;;;;5037914;28;20189;-70
2021/01/30 05:57:23;;;;;;;13.27;8.93;;;;;;;;;;5049838;28;20203;-71
2021/01/30 05:59:53;;;;;;;14.60;8.97;;;;;;;;;;5039725;28;20552;-70
2021/01/30 06:02:25;;;;;;;13.73;8.87;;;;;;;;;;5050165;28;20623;-70
2021/01/30 06:04:50;;;;;;;13.77;9.03;;;;;;;;;;5041564;28;20209;-70
2021/01/30 06:07:24;;;;;;;14.37;8.97;;;;;;;;;;5046571;28;20212;-70
2021/01/30 06:09:50;;;;;;;13.83;8.17;;;;;;;;;;5037978;28;20181;-70
2021/01/30 06:12:29;;;;;;;12.57;8.33;;;;;;;;;;5043692;28;20608;-70
2021/01/30 06:15:05;;;;;;;12.47;8.50;;;;;;;;;;5043921;28;20181;-70
2021/01/30 06:17:33;;;;;;;10.40;7.30;;;;;;;;;;5047395;28;20675;-70
2021/01/30 06:20:24;;;;;;;12.37;7.07;;;;;;;;;;5043323;28;20224;-69
2021/01/30 06:23:05;;;;;;;10.10;6.77;;;;;;;;;;5047648;28;20180;-70
2021/01/30 06:25:33;;;;;;;10.73;7.13;;;;;;;;;;5042988;28;20548;-70
2021/01/30 06:28:15;;;;;;;10.67;7.17;;;;;;;;;;5046292;28;20182;-70
2021/01/30 06:30:44;;;;;;;9.53;6.57;;;;;;;;;;5038397;28;20185;-70
2021/01/30 06:33:26;;;;;;;10.53;7.03;;;;;;;;;;5042322;28;21107;-70
2021/01/30 06:35:56;;;;;;;10.00;6.63;;;;;;;;;;5037403;28;20188;-70
2021/01/30 06:38:31;;;;;;;11.33;6.77;;;;;;;;;;5039961;28;20633;-70
2021/01/30 06:41:01;;;;;;;10.40;6.03;;;;;;;;;;5038142;28;21891;-71
2021/01/30 06:43:44;;;;;;;10.30;6.47;;;;;;;;;;5044556;28;20269;-70
2021/01/30 06:46:14;;;;;;;10.57;6.80;;;;;;;;;;5038240;28;20665;-70
2021/01/30 06:48:44;;;;;;;10.37;5.90;;;;;;;;;;5045848;28;20181;-71
2021/01/30 06:51:24;;;;;;;10.57;6.57;;;;;;;;;;5040015;28;20205;-71
2021/01/30 06:53:50;;;;;;;9.60;6.50;;;;;;;;;;5048765;28;20169;-71
2021/01/30 06:56:25;;;;;;;11.17;6.50;;;;;;;;;;5046397;28;20298;-71
2021/01/30 06:59:00;;;;;;;9.93;6.80;;;;;;;;;;5048201;28;20668;-70
2021/01/30 07:01:40;;;;;;;11.57;7.37;;;;;;;;;;5045958;28;20605;-70
2021/01/30 07:04:14;;;;;;;10.57;6.67;;;;;;;;;;5066812;28;20648;-70
2021/01/30 07:07:03;;;;;;;10.93;7.27;;;;;;;;;;5043605;28;20306;-70
2021/01/30 07:10:06;;;;;;;12.90;7.73;;;;;;;;;;5048457;28;20185;-70
2021/01/30 07:12:42;;;;;;;10.50;7.07;;;;;;;;;;5034653;28;20185;-70
2021/01/30 07:15:25;;;;;;;10.93;7.43;;;;;;;;;;5045623;28;20185;-70
2021/01/30 07:18:07;;;;;;;11.97;7.77;;;;;;;;;;5037680;28;20189;-70
2021/01/30 07:20:36;;;;;;;11.53;8.10;;;;;;;;;;5047332;28;20276;-70
2021/01/30 07:23:14;;;;;;;11.67;8.13;;;;;;;;;;5036605;28;20958;-70
2021/01/30 07:25:56;;;;;;;12.70;8.00;;;;;;;;;;5045137;28;20197;-70
2021/01/30 07:28:42;;;;;;;12.50;7.70;;;;;;;;;;5036241;28;20196;-70
2021/01/30 07:31:33;;;;;;;11.37;8.10;;;;;;;;;;5060811;28;20188;-70
2021/01/30 07:34:20;;;;;;;13.13;8.40;;;;;;;;;;5040208;28;20189;-70
2021/01/30 07:36:57;;;;;;;13.33;8.53;;;;;;;;;;5043555;28;20255;-71
2021/01/30 07:39:49;;;;;;;13.53;8.70;;;;;;;;;;5030587;28;20181;-71
2021/01/30 07:42:22;;;;;;;13.00;8.20;;;;;;;;;;5045318;28;20292;-70
2021/01/30 07:44:48;;;;;;;11.13;7.70;;;;;;;;;;5034963;28;20656;-70
2021/01/30 07:47:18;;;;;;;11.00;7.70;;;;;;;;;;5046906;28;20212;-70
2021/01/30 07:49:51;;;;;;;13.93;8.03;;;;;;;;;;5030056;28;20711;-70
2021/01/30 07:52:26;;;;;;;12.00;7.50;;;;;;;;;;5047747;28;20663;-70
2021/01/30 07:54:55;;;;;;;11.27;7.63;;;;;;;;;;5040706;28;20644;-70
2021/01/30 07:57:38;;;;;;;13.27;7.97;;;;;;;;;;5047462;28;20264;-71
2021/01/30 08:00:18;;;;;;;13.10;8.47;;;;;;;;;;5036627;28;20212;-71
2021/01/30 08:03:00;;;;;;;13.43;8.50;;;;;;;;;;5043582;28;20201;-71
2021/01/30 08:05:35;;;;;;;13.13;8.63;;;;;;;;;;5036747;28;20216;-71
2021/01/30 08:08:13;;;;;;;13.13;8.47;;;;;;;;;;5043939;28;20185;-71
2021/01/30 08:10:51;;;;;;;12.30;8.07;;;;;;;;;;5026489;28;20189;-71
2021/01/30 08:13:45;;;;;;;13.13;8.50;;;;;;;;;;5044381;28;20271;-71
2021/01/30 08:16:36;;;;;;;13.00;8.37;;;;;;;;;;5035979;28;20312;-71
2021/01/30 08:19:08;;;;;;;11.00;7.43;;;;;;;;;;5032232;28;20247;-71
2021/01/30 08:21:40;;;;;;;11.53;7.70;;;;;;;;;;5033619;28;20692;-71
2021/01/30 08:24:12;;;;;;;12.00;7.33;;;;;;;;;;5050624;28;20276;-70
2021/01/30 08:27:01;;;;;;;12.27;8.20;;;;;;;;;;5032361;28;20660;-71
2021/01/30 08:29:32;;;;;;;12.33;7.67;;;;;;;;;;5041943;28;20723;-70
2021/01/30 08:32:19;;;;;;;11.77;8.13;;;;;;;;;;5051918;28;20187;-70
2021/01/30 08:34:44;;;;;;;11.53;6.83;;;;;;;;;;5044856;28;20274;-70
2021/01/30 08:37:13;;;;;;;12.03;8.13;;;;;;;;;;5011334;28;20255;-71
2021/01/30 08:40:12;;;;;;;12.00;7.83;;;;;;;;;;5048081;28;20180;-69
2021/01/30 08:42:59;;;;;;;14.07;8.30;;;;;;;;;;5037601;28;20217;-70
2021/01/30 08:45:32;;;;;;;12.13;8.03;;;;;;;;;;5046719;28;20640;-71
2021/01/30 08:48:16;;;;;;;11.80;7.70;;;;;;;;;;5038180;28;20736;-71
2021/01/30 08:50:50;;;;;;;12.73;8.40;;;;;;;;;;5043868;28;20197;-70
2021/01/30 08:53:26;;;;;;;13.10;8.43;;;;;;;;;;5036776;28;20235;-71
2021/01/30 08:55:59;;;;;;;11.77;7.87;;;;;;;;;;5043473;28;20209;-70
2021/01/30 08:58:36;;;;;;;15.27;8.00;;;;;;;;;;5038643;28;20735;-70
2021/01/30 09:01:06;;;;;;;10.63;6.83;;;;;;;;;;5047554;28;20257;-70
2021/01/30 09:03:56;;;;;;;12.13;7.17;;;;;;;;;;4335855;28;10000728;-71
2021/01/30 09:06:40;;;;;;;10.47;7.07;;;;;;;;;;5038505;28;20205;-71
2021/01/30 09:09:09;;;;;;;9.60;7.03;;;;;;;;;;5034684;28;20276;-70
2021/01/30 09:11:42;;;;;;;10.27;6.50;;;;;;;;;;5040139;28;20266;-71
2021/01/30 09:14:12;;;;;;;10.97;6.40;;;;;;;;;;5032591;28;20661;-70
2021/01/30 09:17:02;;;;;;;9.60;6.40;;;;;;;;;;5038009;28;20194;-71
2021/01/30 09:19:33;;;;;;;10.37;7.07;;;;;;;;;;5029672;28;20695;-70
2021/01/30 09:22:14;;;;;;;10.63;6.60;;;;;;;;;;5039560;28;20237;-70
2021/01/30 09:25:22;;;;;;;10.73;7.13;;;;;;;;;;5030400;28;20196;-70
2021/01/30 09:28:01;;;;;;;11.13;6.60;;;;;;;;;;4993892;28;20273;-70
2021/01/30 09:30:38;;;;;;;10.73;6.83;;;;;;;;;;5026812;28;20233;-70
2021/01/30 09:33:20;;;;;;;11.33;7.00;;;;;;;;;;5039207;28;20684;-70
2021/01/30 09:35:45;;;;;;;11.40;7.63;;;;;;;;;;5030146;28;20224;-70
2021/01/30 09:38:27;;;;;;;15.67;8.07;;;;;;;;;;5039663;28;20685;-70
2021/01/30 09:41:07;;;;;;;11.83;7.23;;;;;;;;;;5033746;28;20249;-70
2021/01/30 09:43:33;;;;;;;12.17;7.50;;;;;;;;;;5043129;28;20239;-70
2021/01/30 09:46:00;;;;;;;11.83;7.60;;;;;;;;;;5034213;28;20198;-71
2021/01/30 09:48:27;;;;;;;12.70;7.90;;;;;;;;;;5043544;28;20208;-70
2021/01/30 09:50:54;;;;;;;14.53;7.60;;;;;;;;;;5032723;28;20593;-70
2021/01/30 09:53:28;;;;;;;14.53;8.00;;;;;;;;;;5058594;28;20231;-71
2021/01/30 09:56:06;;;;;;;12.53;7.33;;;;;;;;;;5031820;28;20499;-70
2021/01/30 09:58:33;;;;;;;11.00;7.10;;;;;;;;;;5043708;28;20233;-71
2021/01/30 10:01:04;;;;;;;11.40;7.00;;;;;;;;;;5033737;28;20699;-70
2021/01/30 10:03:39;;;;;;;12.40;7.37;;;;;;;;;;5044701;28;20193;-71
2021/01/30 10:06:17;;;;;;;11.27;7.17;;;;;;;;;;5032768;28;20213;-70
2021/01/30 10:08:44;;;;;;;11.30;6.87;;;;;;;;;;5040635;28;20296;-71
2021/01/30 10:11:14;;;;;;;10.73;7.20;;;;;;;;;;5058154;28;20539;-69
2021/01/30 10:13:43;;;;;;;12.30;7.33;;;;;;;;;;5036702;28;20190;-70
2021/01/30 10:16:22;;;;;;;11.07;6.97;;;;;;;;;;5042472;28;20185;-70
2021/01/30 10:18:58;;;;;;;10.07;6.73;;;;;;;;;;5035268;28;20446;-70
2021/01/30 10:21:32;;;;;;;10.23;6.87;;;;;;;;;;5043066;28;20582;-69
2021/01/30 10:24:08;;;;;;;11.20;7.40;;;;;;;;;;5034644;28;20531;-70
2021/01/30 10:26:33;;;;;;;12.63;7.57;;;;;;;;;;5043453;28;20509;-70
2021/01/30 10:29:08;;;;;;;12.20;6.37;;;;;;;;;;5038810;28;20208;-70
2021/01/30 10:31:46;;;;;;;10.27;6.97;;;;;;;;;;5045968;28;20246;-69
2021/01/30 10:34:25;;;;;;;12.33;7.93;;;;;;;;;;5039761;28;20321;-69
2021/01/30 10:37:13;;;;;;;11.20;7.50;;;;;;;;;;5046364;28;20573;-70
2021/01/30 10:39:47;;;;;;;12.10;7.07;;;;;;;;;;5037761;28;20258;-70
2021/01/30 10:42:24;;;;;;;13.00;8.47;;;;;;;;;;5052034;28;20228;-70
2021/01/30 10:44:58;;;;;;;11.97;8.13;;;;;;;;;;5037086;28;20280;-69
2021/01/30 10:47:25;;;;;;;12.63;8.10;;;;;;;;;;5047004;28;20185;-70
2021/01/30 10:50:03;;;;;;;13.70;8.53;;;;;;;;;;5035225;28;20237;-71
2021/01/30 10:52:28;;;;;;;13.10;8.40;;;;;;;;;;5048252;28;20238;-71
2021/01/30 10:54:53;;;;;;;12.53;8.13;;;;;;;;;;5036704;28;20208;-70
2021/01/30 10:57:18;;;;;;;13.10;7.70;;;;;;;;;;5050178;28;20186;-69
2021/01/30 10:59:47;;;;;;;13.90;8.27;;;;;;;;;;5038632;28;20189;-70
2021/01/30 11:02:40;;;;;;;15.30;9.13;;;;;;;;;;5046760;28;20235;-70
2021/01/30 11:05:11;;;;;;;12.97;8.00;;;;;;;;;;5038786;28;20732;-70
2021/01/30 11:07:49;;;;;;;14.00;8.23;;;;;;;;;;5049529;28;20267;-70
2021/01/30 11:10:25;;;;;;;14.83;8.17;;;;;;;;;;5037806;28;20675;-70
2021/01/30 11:12:51;;;;;;;14.40;8.23;;;;;;;;;;5051285;28;20216;-70
2021/01/30 11:15:21;;;;;;;14.97;8.70;;;;;;;;;;5039873;28;20188;-70
2021/01/30 11:17:48;;;;;;;16.43;9.30;;;;;;;;;;5049550;28;20227;-70
2021/01/30 11:20:34;;;;;;;16.07;8.90;;;;;;;;;;5038695;28;20553;-70
2021/01/30 11:22:59;;;;;;;15.80;8.50;;;;;;;;;;5048434;28;20691;-70
2021/01/30 11:25:33;;;;;;;15.93;8.60;;;;;;;;;;5034696;28;20204;-70
2021/01/30 11:27:58;;;;;;;16.63;8.93;;;;;;;;;;5048428;28;20561;-70
2021/01/30 11:30:28;;;;;;;16.50;9.07;;;;;;;;;;5047912;28;20189;-69
2021/01/30 11:33:02;;;;;;;14.97;8.57;;;;;;;;;;5042427;28;20181;-69
2021/01/30 11:35:33;;;;;;;15.60;9.30;;;;;;;;;;5045851;28;20190;-69
2021/01/30 11:38:04;;;;;;;15.47;9.03;;;;;;;;;;5038326;28;20247;-69
2021/01/30 11:40:29;;;;;;;15.67;8.73;;;;;;;;;;5046615;28;20185;-70
2021/01/30 11:42:55;;;;;;;15.43;8.97;;;;;;;;;;5038575;28;20214;-70
2021/01/30 11:45:20;;;;;;;17.23;9.20;;;;;;;;;;5047894;28;20240;-70
2021/01/30 11:47:45;;;;;;;13.93;8.07;;;;;;;;;;5036268;28;20546;-70
2021/01/30 11:50:11;;;;;;;15.37;8.63;;;;;;;;;;5045424;28;20189;-70
2021/01/30 11:52:36;;;;;;;14.40;8.33;;;;;;;;;;5036748;28;20529;-69
2021/01/30 11:55:03;;;;;;;14.23;8.40;;;;;;;;;;5044387;28;20243;-70
2021/01/30 11:57:29;;;;;;;14.40;8.70;;;;;;;;;;5037957;28;20200;-70
2021/01/30 11:59:55;;;;;;;15.60;8.73;;;;;;;;;;5043331;28;20282;-71
2021/01/30 12:02:29;;;;;;;15.17;8.10;;;;;;;;;;5035324;28;20251;-70
2021/01/30 12:04:55;;;;;;;15.40;8.33;;;;;;;;;;5044095;28;20205;-71
2021/01/30 12:07:20;;;;;;;15.97;8.63;;;;;;;;;;5047421;28;20193;-71
2021/01/30 12:09:45;;;;;;;14.83;8.90;;;;;;;;;;5036993;28;20193;-71
2021/01/30 12:12:11;;;;;;;16.07;9.17;;;;;;;;;;5046046;28;20184;-71
2021/01/30 12:14:36;;;;;;;19.73;9.47;;;;;;;;;;5035908;28;20192;-69
2021/01/30 12:17:01;;;;;;;14.37;8.80;;;;;;;;;;5046524;28;20541;-70
2021/01/30 12:19:27;;;;;;;15.97;8.17;;;;;;;;;;5032551;28;20672;-70
2021/01/30 12:21:53;;;;;;;18.87;10.00;;;;;;;;;;5045223;28;20903;-70
2021/01/30 12:24:18;;;;;;;19.33;10.10;;;;;;;;;;5034357;28;20193;-70
2021/01/30 12:26:44;;;;;;;18.77;9.37;;;;;;;;;;5050640;28;20189;-70
2021/01/30 12:29:09;;;;;;;18.17;10.47;;;;;;;;;;5034364;28;20225;-70
2021/01/30 12:31:35;;;;;;;17.80;10.00;;;;;;;;;;5046190;28;20208;-70
2021/01/30 12:34:00;;;;;;;20.13;10.80;;;;;;;;;;5035151;28;20235;-70
2021/01/30 12:36:25;;;;;;;20.43;10.30;;;;;;;;;;5047534;28;20244;-70
2021/01/30 12:38:51;;;;;;;18.60;9.77;;;;;;;;;;5045278;28;20185;-70
2021/01/30 12:41:16;;;;;;;18.43;10.57;;;;;;;;;;5037786;28;20220;-70
2021/01/30 12:43:41;;;;;;;21.17;11.80;;;;;;;;;;5046528;28;20196;-70
2021/01/30 12:46:07;;;;;;;19.27;10.20;;;;;;;;;;5037224;28;20637;-70
2021/01/30 12:48:32;;;;;;;18.20;10.50;;;;;;;;;;5044965;28;20200;-70
2021/01/30 12:50:57;;;;;;;20.37;11.33;;;;;;;;;;5036119;28;20181;-70
2021/01/30 12:53:24;;;;;;;18.07;9.30;;;;;;;;;;5046360;28;20239;-70
2021/01/30 12:55:50;;;;;;;19.70;10.63;;;;;;;;;;5050912;28;20239;-71
2021/01/30 12:58:25;;;;;;;19.67;10.53;;;;;;;;;;5047779;28;20593;-70
2021/01/30 13:00:52;;;;;;;19.23;10.77;;;;;;;;;;5037594;28;20275;-70
2021/01/30 13:03:18;;;;;;;21.00;11.23;;;;;;;;;;5046051;28;20185;-70
2021/01/30 13:05:44;;;;;;;19.53;9.97;;;;;;;;;;5036489;28;20215;-70
2021/01/30 13:08:09;;;;;;;20.20;10.93;;;;;;;;;;5044498;28;20580;-70
2021/01/30 13:10:35;;;;;;;18.03;9.60;;;;;;;;;;5041040;28;20239;-70
2021/01/30 13:13:00;;;;;;;16.67;9.30;;;;;;;;;;5042681;28;20333;-70
2021/01/30 13:15:26;;;;;;;16.60;9.03;;;;;;;;;;5047659;28;20176;-70
2021/01/30 13:17:51;;;;;;;16.50;9.23;;;;;;;;;;5044049;28;20185;-70
2021/01/30 13:20:18;;;;;;;18.00;9.17;;;;;;;;;;5050569;28;20201;-70
2021/01/30 13:22:44;;;;;;;14.83;8.90;;;;;;;;;;5041347;28;20555;-70
2021/01/30 13:25:10;;;;;;;15.87;9.40;;;;;;;;;;5049893;28;20185;-70
2021/01/30 13:27:36;;;;;;;15.50;9.30;;;;;;;;;;5040325;28;20185;-70
2021/01/30 13:30:05;;;;;;;17.73;9.47;;;;;;;;;;5046370;28;20528;-70
2021/01/30 13:32:30;;;;;;;18.40;9.87;;;;;;;;;;5039876;28;20200;-70
2021/01/30 13:34:55;;;;;;;18.93;10.07;;;;;;;;;;5050062;28;20268;-70
2021/01/30 13:37:21;;;;;;;18.07;10.07;;;;;;;;;;5053861;28;20237;-70
2021/01/30 13:39:46;;;;;;;18.47;10.67;;;;;;;;;;5048113;28;20185;-71
2021/01/30 13:42:11;;;;;;;14.03;8.33;;;;;;;;;;5048791;28;20566;-70
2021/01/30 13:44:37;;;;;;;15.03;8.13;;;;;;;;;;5040108;28;20223;-70
2021/01/30 13:47:02;;;;;;;14.47;8.43;;;;;;;;;;5051809;28;20205;-71
2021/01/30 13:49:27;;;;;;;14.30;7.60;;;;;;;;;;5038842;28;20214;-70
2021/01/30 13:51:53;;;;;;;13.80;7.53;;;;;;;;;;5049289;28;20200;-71
2021/01/30 13:54:18;;;;;;;13.13;8.00;;;;;;;;;;5039930;28;20181;-70
2021/01/30 13:56:43;;;;;;;14.97;8.27;;;;;;;;;;5041463;28;20235;-71
2021/01/30 13:59:09;;;;;;;15.03;8.23;;;;;;;;;;5038702;28;20196;-71
2021/01/30 14:01:41;;;;;;;13.97;8.17;;;;;;;;;;5049527;28;20318;-71
2021/01/30 14:04:08;;;;;;;16.00;8.70;;;;;;;;;;5038038;28;20643;-71
2021/01/30 14:06:34;;;;;;;12.63;7.97;;;;;;;;;;5044365;28;20197;-72
2021/01/30 14:08:59;;;;;;;14.83;7.90;;;;;;;;;;5037265;28;20192;-71
2021/01/30 14:11:24;;;;;;;14.90;8.13;;;;;;;;;;5046192;28;20185;-71
2021/01/30 14:13:50;;;;;;;15.93;8.83;;;;;;;;;;5038026;28;20618;-72
2021/01/30 14:16:15;;;;;;;16.10;7.87;;;;;;;;;;5046940;28;20201;-70
2021/01/30 14:18:40;;;;;;;12.80;7.97;;;;;;;;;;5046510;28;20546;-70
2021/01/30 14:21:06;;;;;;;14.43;8.13;;;;;;;;;;5045063;28;20217;-71
2021/01/30 14:23:31;;;;;;;15.63;8.20;;;;;;;;;;5047698;28;20185;-70
2021/01/30 14:25:57;;;;;;;14.70;8.10;;;;;;;;;;5039263;28;20185;-71
2021/01/30 14:28:23;;;;;;;13.70;8.10;;;;;;;;;;5047169;28;20268;-71
2021/01/30 14:30:50;;;;;;;15.20;8.37;;;;;;;;;;5037700;28;20391;-70
2021/01/30 14:33:16;;;;;;;13.83;7.73;;;;;;;;;;5041132;28;20220;-70
2021/01/30 14:35:41;;;;;;;14.90;8.33;;;;;;;;;;5037070;28;20228;-71
2021/01/30 14:38:07;;;;;;;13.70;8.30;;;;;;;;;;5044955;28;20226;-70
2021/01/30 14:40:36;;;;;;;17.30;8.80;;;;;;;;;;5039415;28;20530;-70
2021/01/30 14:43:03;;;;;;;16.50;9.47;;;;;;;;;;5049289;28;20217;-71
2021/01/30 14:45:28;;;;;;;14.20;8.40;;;;;;;;;;5034842;28;21650;-71
2021/01/30 14:47:53;;;;;;;14.83;8.53;;;;;;;;;;5046243;28;20200;-71
2021/01/30 14:50:19;;;;;;;14.67;8.87;;;;;;;;;;5046811;28;20227;-71
2021/01/30 14:52:44;;;;;;;15.47;8.93;;;;;;;;;;5037532;28;20190;-71
2021/01/30 14:55:10;;;;;;;15.57;8.60;;;;;;;;;;5049777;28;20691;-71
2021/01/30 14:57:37;;;;;;;15.87;9.07;;;;;;;;;;5041746;28;20683;-71